Impacts METAR Board INFO
IDs:

KSFO - San Francisco Intl, CA, US

Updated at: 0855 UTC 22 Feb 2018
Potential Impact None Slight Moderate High
Time21/20Z 21/21Z 21/22Z 21/23Z 22/00Z 22/01Z 22/02Z 22/03Z 22/04Z 22/05Z 22/06Z 22/07Z 22/08Z
VIS10 10 10 10 10 10 10 10 10 10
CIG-- -- -- -- -- -- -- -- -- --
CoverFEWFEWFEWSCTSCTCLRFEWFEWFEWFEW
FltCatVFRVFRVFRVFRVFRVFRVFRVFRVFRVFR
WX--------------------
WDir1030360300270270280270280
WSpd4 3 5 8 0 13 11 14 13 10
WGst-- -- -- -- -- -- -- -- -- --
Raw hourly METARs
KSFO 211956Z 01004KT 10SM FEW040 11/01 A3022 RMK AO2 SLP232 T01060006
KSFO 212056Z 03003KT 10SM FEW040 11/01 A3020 RMK AO2 SLP225 T01110011 58007
KSFO 212156Z 36005KT 10SM FEW045 13/M02 A3019 RMK AO2 SLP221 T01281022
KSFO 212256Z 03008KT 10SM FEW030 FEW043 SCT200 13/M02 A3018 RMK AO2 SLP221 T01281017
KSFO 212356Z 00000KT 10SM FEW027 FEW040 SCT200 13/M02 A3017 RMK AO2 SLP217 T01331022 10133 20094 57007



KSFO 220356Z 27013KT 10SM CLR 09/03 A3019 RMK AO2 SLP224 T00940033
KSFO 220456Z 27011KT 10SM FEW030 09/04 A3020 RMK AO2 SLP226 T00940039
KSFO 220556Z 28014KT 10SM FEW010 09/04 A3020 RMK AO2 SLP227 T00890044 10133 20089 51006
KSFO 220656Z 27013KT 10SM FEW010 09/04 A3022 RMK AO2 SLP232 T00890039
KSFO 220756Z 28010KT 10SM FEW011 09/04 A3021 RMK AO2 SLP230 T00890039 401330056